Time;durP1;ratioP1;P1;durP2;ratioP2;P2;SDS_P1;SDS_P2;PMS_P1;PMS_P2;Temp;Humidity;BMP_temperature;BMP_pressure;BME280_temperature;BME280_humidity;BME280_pressure;Samples;Min_cycle;Max_cycle;Signal;HPM_P1;HPM_P2
2020/12/18 00:01:41;;;;;;;58.42;17.00;;;;;;;2.53;85.13;100323.36;1774998;80;21149;-80
2020/12/18 00:04:15;;;;;;;51.33;15.45;;;;;;;2.50;84.83;100321.98;1765370;80;21122;-81
2020/12/18 00:06:43;;;;;;;46.48;13.95;;;;;;;2.41;85.44;100315.33;1737848;82;21169;-81
2020/12/18 00:09:10;;;;;;;57.00;19.25;;;;;;;2.49;84.64;100325.39;1770274;80;21118;-80
2020/12/18 00:11:38;;;;;;;67.25;23.27;;;;;;;2.45;84.91;100329.98;1733827;82;21170;-82
2020/12/18 00:14:05;;;;;;;54.15;16.85;;;;;;;2.39;85.17;100325.97;1771555;79;21176;-81
2020/12/18 00:16:34;;;;;;;45.45;12.75;;;;;;;2.35;85.66;100325.01;1733624;81;21193;-83
2020/12/18 00:19:01;;;;;;;44.13;13.05;;;;;;;2.36;85.34;100329.30;1769155;80;21846;-79
2020/12/18 00:21:28;;;;;;;51.85;13.18;;;;;;;2.35;85.26;100328.86;1736102;82;21296;-81
2020/12/18 00:23:56;;;;;;;63.68;17.50;;;;;;;2.33;85.71;100331.80;1770518;80;21288;-81
2020/12/18 00:26:24;;;;;;;54.88;15.08;;;;;;;2.32;85.81;100328.75;1736905;82;21245;-80
2020/12/18 00:28:51;;;;;;;44.80;12.60;;;;;;;2.35;85.71;100330.14;1769297;80;21811;-81
2020/12/18 00:31:18;;;;;;;47.25;14.38;;;;;;;2.39;85.47;100340.95;1732908;82;21193;-81
2020/12/18 00:33:46;;;;;;;49.40;13.98;;;;;;;2.42;85.84;100331.17;1769815;79;21284;-80
2020/12/18 00:36:13;;;;;;;48.05;12.65;;;;;;;2.47;85.16;100332.18;1735526;82;21772;-80
2020/12/18 00:38:41;;;;;;;44.90;13.18;;;;;;;2.46;85.73;100331.70;1769934;80;21259;-80
2020/12/18 00:41:12;;;;;;;49.70;13.83;;;;;;;2.49;85.44;100331.81;1734559;82;21163;-80
2020/12/18 00:43:40;;;;;;;45.67;14.23;;;;;;;2.46;85.61;100322.72;1766107;80;21338;-80
2020/12/18 00:46:08;;;;;;;48.10;14.13;;;;;;;2.48;85.56;100333.05;1732603;82;21166;-80
2020/12/18 00:48:35;;;;;;;52.70;16.20;;;;;;;2.53;85.31;100334.05;1770172;80;21672;-80
2020/12/18 00:51:05;;;;;;;51.88;16.07;;;;;;;2.50;85.48;100333.53;1734784;82;21172;-78
2020/12/18 00:53:36;;;;;;;52.60;16.52;;;;;;;2.51;85.32;100334.42;1748476;80;21466;-80
2020/12/18 00:56:10;;;;;;;46.37;15.00;;;;;;;2.54;84.81;100330.22;1751490;80;22079;-80
2020/12/18 00:58:44;;;;;;;54.08;14.78;;;;;;;2.53;84.62;100332.34;1751769;80;21184;-80
2020/12/18 01:01:13;;;;;;;50.92;16.15;;;;;;;2.52;84.94;100332.30;1767584;78;21179;-80
2020/12/18 01:03:41;;;;;;;52.10;15.32;;;;;;;2.52;84.49;100335.72;1746554;81;21119;-81
2020/12/18 01:06:11;;;;;;;58.65;15.00;;;;;;;2.44;84.78;100327.37;1800179;78;21568;-80
2020/12/18 01:08:40;;;;;;;48.42;13.38;;;;;;;2.44;84.52;100329.94;1798127;79;21635;-80
2020/12/18 01:11:08;;;;;;;46.30;13.25;;;;;;;2.40;85.42;100331.55;1798405;79;21256;-80
2020/12/18 01:13:36;;;;;;;60.05;14.20;;;;;;;2.47;84.29;100333.46;1793875;79;21317;-78
2020/12/18 01:16:10;;;;;;;53.30;13.60;;;;;;;2.45;84.74;100330.38;1797798;78;21166;-80
2020/12/18 01:18:39;;;;;;;42.30;12.82;;;;;;;2.44;84.78;100319.25;1774509;79;21174;-78
2020/12/18 01:21:07;;;;;;;49.75;13.98;;;;;;;2.48;84.82;100331.75;1797172;79;21126;-78
2020/12/18 01:23:36;;;;;;;53.48;13.10;;;;;;;2.46;85.03;100330.42;1797301;79;21165;-79
2020/12/18 01:26:05;;;;;;;50.95;14.45;;;;;;;2.50;84.94;100326.25;1799017;79;21280;-80
2020/12/18 01:28:33;;;;;;;49.60;13.45;;;;;;;2.52;84.89;100330.59;1796186;79;21292;-79
2020/12/18 01:31:01;;;;;;;46.18;13.83;;;;;;;2.53;84.86;100325.06;1797838;79;21296;-80
2020/12/18 01:33:29;;;;;;;44.10;15.53;;;;;;;2.57;84.83;100320.47;1782497;79;21169;-80
2020/12/18 01:35:57;;;;;;;50.70;16.65;;;;;;;2.57;84.77;100329.03;1795909;79;21163;-81
2020/12/18 01:38:26;;;;;;;45.78;16.07;;;;;;;2.58;84.63;100323.05;1793649;79;21260;-80
2020/12/18 01:40:54;;;;;;;44.80;14.33;;;;;;;2.60;84.54;100317.97;1800788;79;21328;-79
2020/12/18 01:43:22;;;;;;;52.03;16.27;;;;;;;2.63;84.32;100321.05;1798646;79;21315;-80
2020/12/18 01:45:49;;;;;;;50.90;15.50;;;;;;;2.58;84.40;100316.62;1799601;79;21280;-81
2020/12/18 01:48:18;;;;;;;47.70;14.85;;;;;;;2.55;84.42;100317.85;1797062;79;21176;-81
2020/12/18 01:50:48;;;;;;;51.55;13.58;;;;;;;2.52;84.44;100325.88;1798711;79;21287;-80
2020/12/18 01:53:16;;;;;;;58.58;15.28;;;;;;;2.51;83.96;100325.02;1798714;79;21307;-80
2020/12/18 01:56:01;;;;;;;47.98;12.88;;;;;;;2.53;84.79;100324.64;1826676;75;23022;-81
2020/12/18 01:58:32;;;;;;;47.23;12.85;;;;;;;2.52;84.78;100322.89;1804157;79;21278;-80
2020/12/18 02:01:09;;;;;;;42.65;13.65;;;;;;;2.58;84.76;100325.61;1767294;78;21214;-80
2020/12/18 02:03:38;;;;;;;46.00;12.98;;;;;;;2.64;84.63;100328.77;1796914;78;21148;-79
2020/12/18 02:06:18;;;;;;;42.67;12.80;;;;;;;2.69;84.71;100331.06;1793907;78;21167;-80
2020/12/18 02:09:05;;;;;;;44.30;11.20;;;;;;;2.72;84.37;100328.97;1800840;79;21786;-81
2020/12/18 02:11:41;;;;;;;44.58;13.08;;;;;;;2.73;84.51;100326.45;1798333;77;21132;-81
2020/12/18 02:14:13;;;;;;;55.78;14.87;;;;;;;2.80;84.57;100328.75;1799080;78;21148;-80
2020/12/18 02:16:43;;;;;;;56.28;14.20;;;;;;;2.86;84.48;100331.91;1796733;78;21140;-83
2020/12/18 02:19:16;;;;;;;47.25;15.23;;;;;;;2.90;84.43;100321.73;1801022;79;21297;-81
2020/12/18 02:21:45;;;;;;;53.05;15.23;;;;;;;2.92;84.25;100327.78;1796026;78;21168;-80
2020/12/18 02:24:26;;;;;;;56.33;16.62;;;;;;;2.98;84.43;100327.08;1798186;77;21282;-80
2020/12/18 02:26:56;;;;;;;50.03;14.00;;;;;;;3.00;84.27;100325.41;1797834;78;21172;-85
2020/12/18 02:29:25;;;;;;;61.80;16.00;;;;;;;2.99;84.07;100330.97;1767546;79;21691;-81
2020/12/18 02:31:54;;;;;;;52.65;13.90;;;;;;;3.01;83.95;100331.45;1799719;77;21774;-82
2020/12/18 02:34:39;;;;;;;57.15;15.85;;;;;;;3.05;84.14;100327.70;1803896;78;22955;-78
2020/12/18 02:37:08;;;;;;;54.30;14.53;;;;;;;2.99;84.09;100328.83;1752425;80;21664;-80
2020/12/18 02:39:36;;;;;;;60.30;15.65;;;;;;;2.96;83.98;100324.88;1742604;80;21158;-80
2020/12/18 02:42:06;;;;;;;53.95;15.10;;;;;;;2.93;84.01;100325.69;1811140;78;21612;-80
2020/12/18 02:44:43;;;;;;;55.25;18.02;;;;;;;2.97;84.09;100321.08;1801991;77;22943;-81
2020/12/18 02:47:27;;;;;;;59.48;14.03;;;;;;;2.92;84.13;100322.64;1757855;79;21482;-80
2020/12/18 02:49:55;;;;;;;46.75;11.97;;;;;;;2.90;84.06;100324.30;1762680;80;21288;-79
2020/12/18 02:52:24;;;;;;;46.58;13.38;;;;;;;2.92;84.06;100318.79;1761959;79;21186;-80
2020/12/18 02:55:04;;;;;;;52.30;14.40;;;;;;;2.93;84.04;100330.82;1829880;77;21284;-81
2020/12/18 02:57:52;;;;;;;48.85;12.55;;;;;;;2.99;84.07;100324.55;1801568;78;22888;-79
2020/12/18 03:00:32;;;;;;;44.58;13.05;;;;;;;3.03;84.23;100328.08;1805251;78;22935;-78
2020/12/18 03:02:59;;;;;;;50.63;13.90;;;;;;;3.02;84.16;100317.75;1752194;80;21191;-80
2020/12/18 03:05:28;;;;;;;52.38;13.45;;;;;;;3.03;83.97;100325.50;1769249;80;21177;-81
2020/12/18 03:07:58;;;;;;;51.10;15.58;;;;;;;3.05;84.08;100328.98;1812212;78;21279;-80
2020/12/18 03:10:27;;;;;;;53.68;16.40;;;;;;;3.08;83.92;100324.33;1805572;78;21152;-81
2020/12/18 03:12:55;;;;;;;55.65;17.55;;;;;;;3.09;83.86;100324.80;1812734;78;21140;-81
2020/12/18 03:15:22;;;;;;;54.83;17.45;;;;;;;3.11;83.87;100323.12;1811825;78;21145;-81
2020/12/18 03:18:00;;;;;;;55.50;16.52;;;;;;;3.17;83.93;100324.56;1801109;78;23422;-79
2020/12/18 03:20:28;;;;;;;55.78;16.00;;;;;;;3.14;83.86;100336.03;1805480;79;21155;-81
2020/12/18 03:23:06;;;;;;;47.17;15.78;;;;;;;3.19;83.77;100327.61;1900286;75;23008;-79
2020/12/18 03:25:54;;;;;;;50.67;14.65;;;;;;;3.17;83.72;100330.98;1873838;74;22881;-80
2020/12/18 03:28:50;;;;;;;50.52;14.73;;;;;;;3.16;83.73;100326.66;1886211;74;22952;-80
2020/12/18 03:31:19;;;;;;;45.78;14.07;;;;;;;3.11;83.69;100326.98;1869850;76;21236;-80
2020/12/18 03:33:47;;;;;;;46.50;13.80;;;;;;;3.04;83.72;100331.08;1755405;80;21196;-81
2020/12/18 03:36:29;;;;;;;49.15;14.70;;;;;;;3.06;83.82;100325.56;1801343;77;22939;-81
2020/12/18 03:38:58;;;;;;;52.38;12.30;;;;;;;3.00;83.95;100327.98;1757137;80;21304;-80
2020/12/18 03:41:27;;;;;;;44.45;12.28;;;;;;;2.98;84.02;100335.67;1757980;80;21296;-81
2020/12/18 03:43:55;;;;;;;47.25;12.88;;;;;;;2.95;83.99;100341.14;1758090;80;21300;-80
2020/12/18 03:46:23;;;;;;;49.23;14.10;;;;;;;2.95;84.04;100340.72;1783279;79;21128;-80
2020/12/18 03:49:21;;;;;;;54.53;15.05;;;;;;;3.02;84.32;100338.30;1804775;77;22949;-80
2020/12/18 03:51:50;;;;;;;55.48;15.68;;;;;;;2.99;84.18;100342.53;1740965;81;21120;-81
2020/12/18 03:54:23;;;;;;;55.67;16.25;;;;;;;3.02;84.12;100340.45;1809305;78;21315;-81
2020/12/18 03:57:18;;;;;;;57.50;15.58;;;;;;;3.09;84.03;100344.92;1856318;75;23041;-81
2020/12/18 04:00:07;;;;;;;60.45;18.50;;;;;;;3.13;84.17;100343.31;1767033;78;28164;-80
2020/12/18 04:02:42;;;;;;;50.52;15.83;;;;;;;3.14;83.87;100347.20;1780969;79;21176;-83
2020/12/18 04:05:11;;;;;;;54.53;15.15;;;;;;;3.17;83.84;100347.69;1777957;79;21156;-83
2020/12/18 04:07:38;;;;;;;55.28;16.45;;;;;;;3.19;83.78;100348.59;1780096;79;21138;-81
2020/12/18 04:10:07;;;;;;;52.85;15.25;;;;;;;3.21;83.75;100344.79;1778130;80;21297;-81
2020/12/18 04:12:38;;;;;;;43.15;14.95;;;;;;;3.23;83.68;100345.69;1780400;79;21165;-81
2020/12/18 04:15:06;;;;;;;46.90;14.78;;;;;;;3.23;83.61;100343.98;1781503;79;21346;-81
2020/12/18 04:17:35;;;;;;;49.60;15.83;;;;;;;3.25;83.56;100356.45;1780353;79;21178;-81
2020/12/18 04:20:04;;;;;;;46.08;16.27;;;;;;;3.21;83.45;100349.50;1781450;79;21181;-82
2020/12/18 04:22:33;;;;;;;55.45;17.52;;;;;;;3.19;82.98;100351.17;1783245;79;21311;-80
2020/12/18 04:25:03;;;;;;;53.48;16.77;;;;;;;3.09;83.30;100353.06;1778870;79;21180;-81
2020/12/18 04:27:33;;;;;;;48.40;15.13;;;;;;;3.06;83.46;100352.97;1780849;79;21147;-80
2020/12/18 04:30:01;;;;;;;51.77;13.58;;;;;;;3.03;83.47;100358.05;1779747;79;21192;-80
2020/12/18 04:32:30;;;;;;;48.40;13.50;;;;;;;2.99;83.38;100357.09;1780950;79;21139;-81
2020/12/18 04:34:59;;;;;;;45.73;13.65;;;;;;;2.94;83.50;100349.23;1782576;79;21639;-81
2020/12/18 04:37:28;;;;;;;49.15;13.30;;;;;;;2.96;83.58;100348.00;1781123;79;21272;-81
2020/12/18 04:40:14;;;;;;;54.18;15.15;;;;;;;3.02;83.75;100348.58;1774613;79;22958;-81
2020/12/18 04:43:11;;;;;;;52.17;13.70;;;;;;;3.04;83.76;100344.35;1798350;77;23780;-81
2020/12/18 04:45:42;;;;;;;54.77;15.95;;;;;;;2.93;83.71;100344.09;1806205;78;21774;-79
2020/12/18 04:48:13;;;;;;;52.88;15.35;;;;;;;2.97;83.82;100348.05;1802188;78;21149;-81
2020/12/18 04:50:46;;;;;;;58.75;15.18;;;;;;;2.98;83.86;100343.77;1790189;79;21159;-81
2020/12/18 04:53:33;;;;;;;64.53;17.77;;;;;;;3.06;83.77;100357.68;1827195;76;22915;-79
2020/12/18 04:56:23;;;;;;;71.05;18.52;;;;;;;3.12;83.77;100351.83;1801908;78;23425;-82
2020/12/18 04:59:02;;;;;;;73.47;21.15;;;;;;;3.06;83.48;100352.97;1808381;79;21166;-80
2020/12/18 05:01:31;;;;;;;73.20;21.50;;;;;;;3.08;83.57;100359.02;1804443;79;21116;-81
2020/12/18 05:04:11;;;;;;;71.12;20.37;;;;;;;3.12;83.48;100357.86;1799307;78;22920;-80
2020/12/18 05:06:40;;;;;;;74.47;21.10;;;;;;;3.05;83.41;100360.23;1747455;80;21177;-80
2020/12/18 05:09:09;;;;;;;68.20;19.87;;;;;;;3.03;83.59;100360.19;1826141;78;21255;-80
2020/12/18 05:11:36;;;;;;;73.25;22.73;;;;;;;3.04;83.73;100361.05;1825925;78;21279;-80
2020/12/18 05:14:06;;;;;;;75.60;25.17;;;;;;;3.04;83.72;100362.34;1774438;81;21293;-84
2020/12/18 05:16:35;;;;;;;66.17;19.45;;;;;;;3.03;83.76;100361.47;1824264;78;21140;-79
2020/12/18 05:19:17;;;;;;;54.38;15.93;;;;;;;3.02;83.76;100361.42;1873794;74;22919;-79
2020/12/18 05:21:49;;;;;;;56.63;16.05;;;;;;;2.91;84.03;100363.73;1828009;76;21157;-81
2020/12/18 05:24:20;;;;;;;56.45;15.72;;;;;;;2.89;83.79;100362.82;1846060;76;21143;-80
2020/12/18 05:26:51;;;;;;;54.75;14.70;;;;;;;2.88;83.82;100359.78;1842805;75;21651;-79
2020/12/18 05:29:19;;;;;;;67.80;18.10;;;;;;;2.89;83.77;100362.82;1845807;75;21153;-79
2020/12/18 05:32:00;;;;;;;68.70;17.60;;;;;;;2.95;84.01;100361.70;1895780;75;22915;-80
2020/12/18 05:34:32;;;;;;;63.48;17.65;;;;;;;2.92;83.91;100369.30;1851781;76;21176;-80
2020/12/18 05:37:02;;;;;;;68.33;17.00;;;;;;;2.91;84.09;100359.45;1860518;76;21137;-79
2020/12/18 05:39:40;;;;;;;75.72;23.47;;;;;;;2.97;84.14;100366.03;1815401;76;28132;-79
2020/12/18 05:42:08;;;;;;;67.75;20.92;;;;;;;3.06;83.90;100368.38;1801319;78;21297;-80
2020/12/18 05:44:37;;;;;;;62.90;18.40;;;;;;;3.12;83.92;100370.71;1799999;77;21132;-80
2020/12/18 05:47:32;;;;;;;69.37;21.23;;;;;;;3.22;83.72;100371.78;1807429;78;22983;-80
2020/12/18 05:50:05;;;;;;;70.03;21.23;;;;;;;3.22;83.80;100374.36;1785028;80;21164;-78
2020/12/18 05:52:33;;;;;;;71.40;22.27;;;;;;;3.25;83.65;100373.59;1760978;80;21605;-81
2020/12/18 05:55:02;;;;;;;66.45;20.25;;;;;;;3.29;83.70;100367.27;1785123;79;21452;-79
2020/12/18 05:57:39;;;;;;;65.08;21.30;;;;;;;3.31;83.57;100377.17;1785532;80;21150;-79
2020/12/18 06:00:11;;;;;;;76.42;22.50;;;;;;;3.34;83.55;100378.94;1784963;79;21602;-80
2020/12/18 06:03:02;;;;;;;;;;;;;;;3.34;83.46;100388.83;1783123;80;21157;-80
2020/12/18 06:05:33;;;;;;;100.78;32.28;;;;;;;3.31;83.08;100387.45;1748758;81;20181;-80
2020/12/18 06:08:18;;;;;;;70.92;22.07;;;;;;;3.30;83.12;100391.26;1714315;83;21646;-80
2020/12/18 06:10:53;;;;;;;63.28;19.87;;;;;;;3.25;82.99;100389.01;1719183;82;21271;-80
2020/12/18 06:13:29;;;;;;;80.62;21.12;;;;;;;3.21;83.12;100384.62;1717908;83;21162;-80
2020/12/18 06:16:26;;;;;;;75.72;20.57;;;;;;;3.23;83.16;100385.53;1803058;77;24217;-84
2020/12/18 06:19:06;;;;;;;70.35;19.73;;;;;;;3.17;83.52;100393.95;1805147;79;21126;-81
2020/12/18 06:21:36;;;;;;;71.77;17.87;;;;;;;3.15;83.16;100387.91;1805230;79;21115;-80
2020/12/18 06:24:05;;;;;;;60.58;17.20;;;;;;;3.15;83.33;100395.19;1746131;81;21155;-81
2020/12/18 06:26:42;;;;;;;78.28;25.37;;;;;;;3.22;83.56;100392.77;1862253;75;28141;-82
2020/12/18 06:29:17;;;;;;;69.00;20.37;;;;;;;3.25;83.22;100391.16;1842887;75;21111;-81
2020/12/18 06:32:25;;;;;;;75.80;26.20;;;;;;;3.31;83.38;100388.73;1875958;75;28017;-79
2020/12/18 06:35:34;;;;;;;63.17;19.77;;;;;;;3.44;83.09;100382.61;1802983;78;22943;-79
2020/12/18 06:38:23;;;;;;;63.73;20.05;;;;;;;3.46;83.14;100388.66;1804925;79;22276;-78
2020/12/18 06:41:28;;;;;;;75.93;28.57;;;;;;;3.54;82.89;100390.98;1796683;77;49117;-79
2020/12/18 06:44:34;;;;;;;72.65;22.90;;;;;;;3.66;82.79;100392.59;1828409;76;23351;-82
2020/12/18 06:47:23;;;;;;;81.47;25.02;;;;;;;3.67;82.66;100390.88;1892157;75;22898;-80
2020/12/18 06:50:14;;;;;;;76.37;24.15;;;;;;;3.67;82.42;100391.74;1803509;78;22911;-80
2020/12/18 06:53:08;;;;;;;72.35;22.42;;;;;;;3.67;82.49;100388.31;1800759;78;22925;-79
2020/12/18 06:55:39;;;;;;;80.40;28.05;;;;;;;3.57;82.44;100388.50;1761158;79;21162;-79
2020/12/18 06:58:20;;;;;;;79.92;26.30;;;;;;;3.60;82.50;100391.13;1801836;78;23477;-81
2020/12/18 07:00:57;;;;;;;73.02;24.32;;;;;;;3.55;82.52;100390.17;1807562;79;21335;-80
2020/12/18 07:03:43;;;;;;;75.55;23.22;;;;;;;3.52;82.50;100394.83;1802356;79;21120;-80
2020/12/18 07:06:23;;;;;;;73.07;24.55;;;;;;;3.50;82.50;100405.89;1736241;81;21165;-79
2020/12/18 07:08:51;;;;;;;70.70;23.30;;;;;;;3.45;82.62;100400.64;1802172;79;21157;-80
2020/12/18 07:11:19;;;;;;;97.08;22.60;;;;;;;3.49;82.65;100395.17;1744574;81;21189;-81
2020/12/18 07:13:51;;;;;;;69.20;22.67;;;;;;;3.47;82.59;100408.41;1803167;79;21178;-79
2020/12/18 07:16:21;;;;;;;78.57;24.98;;;;;;;3.48;82.43;100402.41;1736923;81;21178;-80
2020/12/18 07:18:50;;;;;;;75.50;24.05;;;;;;;3.46;82.50;100393.41;1805355;79;21248;-81
2020/12/18 07:21:19;;;;;;;66.77;20.60;;;;;;;3.46;82.44;100399.83;1742830;81;21173;-83
2020/12/18 07:23:49;;;;;;;62.43;18.90;;;;;;;3.46;82.42;100396.36;1806981;79;21150;-82
2020/12/18 07:26:19;;;;;;;66.20;19.92;;;;;;;3.43;82.22;100395.88;1738394;82;21303;-81
2020/12/18 07:28:48;;;;;;;67.42;18.65;;;;;;;3.44;82.50;100394.17;1745823;82;21217;-82
2020/12/18 07:31:26;;;;;;;68.02;20.82;;;;;;;3.46;82.33;100402.40;1802839;79;22016;-82
2020/12/18 07:33:56;;;;;;;57.38;17.32;;;;;;;3.52;82.78;100397.80;1805959;79;21437;-83
2020/12/18 07:36:28;;;;;;;66.77;17.15;;;;;;;3.51;82.46;100395.66;1801174;79;21172;-82
2020/12/18 07:39:00;;;;;;;60.40;18.60;;;;;;;3.58;82.68;100394.08;1814618;79;21284;-81
2020/12/18 07:41:29;;;;;;;57.62;17.50;;;;;;;3.63;82.40;100396.36;1805129;79;21268;-83
2020/12/18 07:44:06;;;;;;;73.28;21.15;;;;;;;3.66;82.32;100393.88;1809546;79;21264;-82
2020/12/18 07:46:35;;;;;;;63.90;20.55;;;;;;;3.72;82.18;100394.02;1808327;79;21256;-83
2020/12/18 07:49:11;;;;;;;61.83;19.50;;;;;;;3.74;81.91;100394.92;1804699;79;21305;-81
2020/12/18 07:51:40;;;;;;;69.30;20.75;;;;;;;3.78;82.00;100389.02;1805462;78;21288;-83
2020/12/18 07:54:08;;;;;;;66.62;21.68;;;;;;;3.77;80.98;100385.11;1803186;79;21579;-81
2020/12/18 07:56:36;;;;;;;68.87;22.17;;;;;;;3.77;81.40;100386.40;1801203;79;21301;-82
2020/12/18 07:59:08;;;;;;;74.65;24.12;;;;;;;3.79;81.72;100388.16;1805770;79;21264;-82
2020/12/18 08:01:38;;;;;;;76.97;24.45;;;;;;;3.83;81.76;100391.69;1744331;82;21457;-81
2020/12/18 08:04:12;;;;;;;79.65;24.82;;;;;;;3.87;81.74;100385.77;1807940;79;21275;-82
2020/12/18 08:09:19;;;;;;;79.10;27.35;;;;;;;3.98;81.50;100392.04;1822668;77;22821;-84
2020/12/18 08:11:50;;;;;;;93.60;28.65;;;;;;;3.94;81.38;100395.80;1777279;79;21280;-82
2020/12/18 08:14:17;;;;;;;82.35;26.37;;;;;;;3.91;81.26;100394.44;1789717;79;21297;-82
2020/12/18 08:16:44;;;;;;;78.75;26.02;;;;;;;3.92;81.36;100397.05;1767152;79;21268;-82
2020/12/18 08:19:13;;;;;;;81.90;28.12;;;;;;;3.88;81.27;100400.39;1784741;79;21296;-82
2020/12/18 08:21:47;;;;;;;83.50;29.92;;;;;;;3.91;81.42;100406.02;1791705;79;21802;-82
2020/12/18 08:24:34;;;;;;;80.07;27.60;;;;;;;3.91;81.42;100403.44;1796633;79;21125;-81
2020/12/18 08:29:47;;;;;;;74.58;26.15;;;;;;;3.94;81.24;100392.80;1778974;79;23086;-87
2020/12/18 08:32:27;;;;;;;69.80;23.27;;;;;;;3.92;81.21;100399.63;1777209;80;21269;-82
2020/12/18 08:35:00;;;;;;;72.58;23.07;;;;;;;3.89;81.31;100406.39;1780353;79;21145;-83
2020/12/18 08:37:29;;;;;;;73.97;23.92;;;;;;;3.93;81.45;100399.20;1781447;80;21177;-84
2020/12/18 08:39:56;;;;;;;83.97;24.23;;;;;;;4.00;81.54;100402.38;1777289;80;21319;-83
2020/12/18 08:42:24;;;;;;;83.05;23.75;;;;;;;4.06;81.51;100400.33;1781425;80;21300;-84
2020/12/18 08:44:51;;;;;;;70.03;22.45;;;;;;;4.14;81.57;100394.95;1772498;78;21767;-82
2020/12/18 08:47:25;;;;;;;87.50;26.10;;;;;;;4.22;81.65;100397.67;1777913;80;21150;-83
2020/12/18 08:49:56;;;;;;;82.60;26.27;;;;;;;4.29;81.48;100401.70;1783495;80;21174;-82
2020/12/18 08:52:29;;;;;;;84.28;25.62;;;;;;;4.37;80.98;100392.85;1787791;80;21289;-82
2020/12/18 08:55:03;;;;;;;89.55;29.23;;;;;;;4.44;81.16;100395.16;1778927;80;21200;-83
2020/12/18 08:57:32;;;;;;;80.07;27.60;;;;;;;4.52;80.94;100398.33;1772637;80;21265;-84
2020/12/18 09:00:19;;;;;;;90.53;29.32;;;;;;;4.57;81.28;100391.55;1776767;80;21292;-82
2020/12/18 09:02:57;;;;;;;73.75;28.20;;;;;;;4.52;80.35;100393.17;1784179;79;21523;-83
2020/12/18 09:05:32;;;;;;;74.70;27.80;;;;;;;4.59;80.90;100386.43;1773996;80;21694;-84
2020/12/18 09:08:04;;;;;;;81.87;29.63;;;;;;;4.61;80.57;100382.60;1772640;81;21280;-82
2020/12/18 09:10:44;;;;;;;89.67;30.12;;;;;;;4.60;80.13;100379.17;1770161;81;21278;-82
2020/12/18 09:13:23;;;;;;;68.92;25.50;;;;;;;4.62;79.75;100386.93;1776495;80;21086;-83
2020/12/18 09:16:02;;;;;;;63.58;21.73;;;;;;;4.63;79.41;100386.08;1780095;80;21205;-83
2020/12/18 09:18:34;;;;;;;57.48;21.20;;;;;;;4.63;79.37;100386.08;1784249;79;21248;-84
2020/12/18 09:21:14;;;;;;;62.15;21.33;;;;;;;4.59;78.81;100382.56;1777411;78;21218;-84
2020/12/18 09:23:46;;;;;;;59.08;22.07;;;;;;;4.59;78.94;100386.43;1775885;80;21221;-84
2020/12/18 09:26:29;;;;;;;57.45;20.68;;;;;;;4.48;79.03;100382.80;1779565;80;21297;-84
2020/12/18 09:28:58;;;;;;;53.70;19.37;;;;;;;4.46;79.09;100383.18;1754789;78;21429;-84
2020/12/18 09:31:26;;;;;;;55.20;20.35;;;;;;;4.43;79.05;100381.81;1742541;82;21303;-83
2020/12/18 09:33:53;;;;;;;60.58;20.37;;;;;;;4.40;79.08;100383.92;1743193;82;21249;-84
2020/12/18 09:36:22;;;;;;;52.65;19.10;;;;;;;4.39;78.98;100377.02;1735991;82;21279;-83
2020/12/18 09:38:53;;;;;;;57.60;19.32;;;;;;;4.37;79.18;100379.98;1743417;82;21288;-84
2020/12/18 09:41:23;;;;;;;45.55;16.90;;;;;;;4.34;79.20;100374.36;1704575;81;21335;-86
2020/12/18 09:43:51;;;;;;;38.05;13.48;;;;;;;4.31;78.83;100377.28;1702767;83;21248;-83
2020/12/18 09:46:21;;;;;;;41.73;12.78;;;;;;;4.25;78.77;100373.30;1709200;80;21241;-84
2020/12/18 09:48:48;;;;;;;36.53;13.38;;;;;;;4.30;79.13;100376.42;1704367;80;21317;-84
2020/12/18 09:51:17;;;;;;;40.78;13.25;;;;;;;4.30;79.07;100382.00;1719412;80;21346;-85
2020/12/18 09:53:45;;;;;;;42.25;13.22;;;;;;;4.30;78.70;100372.56;1700662;83;21258;-83
2020/12/18 09:56:14;;;;;;;49.58;16.30;;;;;;;4.36;79.33;100373.11;1697079;83;21276;-84
2020/12/18 09:58:44;;;;;;;52.50;18.65;;;;;;;4.43;78.66;100373.66;1701329;83;21297;-83
2020/12/18 10:01:17;;;;;;;64.67;20.52;;;;;;;4.45;79.31;100376.28;1709290;83;21245;-83
2020/12/18 10:03:47;;;;;;;64.00;21.30;;;;;;;4.51;79.15;100369.95;1697241;82;21258;-83
2020/12/18 10:06:14;;;;;;;46.35;17.57;;;;;;;4.61;79.15;100374.88;1698688;82;21233;-83
2020/12/18 10:08:42;;;;;;;60.38;22.42;;;;;;;4.65;78.89;100373.67;1701549;82;21492;-84
2020/12/18 10:11:09;;;;;;;61.63;21.75;;;;;;;4.72;78.00;100376.83;1698698;82;21239;-84
2020/12/18 10:13:37;;;;;;;58.90;21.73;;;;;;;4.78;78.71;100377.36;1706484;83;21479;-84
2020/12/18 10:16:08;;;;;;;54.88;19.37;;;;;;;4.86;78.43;100385.24;1742290;79;22269;-87
2020/12/18 10:18:36;;;;;;;56.15;18.20;;;;;;;4.94;78.80;100370.78;1737004;79;21220;-83
2020/12/18 10:21:03;;;;;;;53.80;17.80;;;;;;;5.02;78.55;100383.81;1728570;83;21375;-81
2020/12/18 10:23:31;;;;;;;58.35;18.80;;;;;;;5.03;78.26;100375.23;1732803;83;21530;-83
2020/12/18 10:25:58;;;;;;;52.70;18.40;;;;;;;5.06;78.29;100376.59;1727959;83;21294;-83
2020/12/18 10:28:26;;;;;;;49.95;16.30;;;;;;;5.02;77.82;100376.95;1719170;82;21321;-83
2020/12/18 10:30:54;;;;;;;48.98;16.95;;;;;;;4.95;78.09;100377.27;1762166;79;21549;-80
2020/12/18 10:33:22;;;;;;;45.03;15.08;;;;;;;4.91;78.33;100376.73;1761599;80;21283;-82
2020/12/18 10:35:49;;;;;;;40.60;14.50;;;;;;;4.95;78.38;100377.27;1751094;80;21169;-84
2020/12/18 10:38:17;;;;;;;40.80;14.87;;;;;;;4.97;78.41;100369.14;1747851;81;21267;-83
2020/12/18 10:40:44;;;;;;;41.13;14.53;;;;;;;4.94;77.92;100368.20;1754218;80;21275;-83
2020/12/18 10:43:12;;;;;;;42.03;15.30;;;;;;;4.95;78.21;100377.27;1730039;83;21263;-82
2020/12/18 10:45:40;;;;;;;43.35;15.20;;;;;;;4.94;78.00;100374.22;1720771;82;21135;-84
2020/12/18 10:48:09;;;;;;;42.48;15.18;;;;;;;4.83;77.16;100375.72;1770239;80;21130;-83
2020/12/18 10:50:38;;;;;;;45.55;16.02;;;;;;;4.74;77.55;100379.01;1760642;81;21261;-82
2020/12/18 10:53:05;;;;;;;45.05;15.63;;;;;;;4.74;78.11;100375.14;1765064;80;21242;-83
2020/12/18 10:55:34;;;;;;;43.60;15.75;;;;;;;4.75;78.24;100374.72;1763592;81;21278;-83
2020/12/18 10:58:01;;;;;;;37.73;13.30;;;;;;;4.68;78.20;100367.30;1762359;81;21212;-83
2020/12/18 11:00:29;;;;;;;37.53;12.50;;;;;;;4.68;78.40;100369.88;1744095;78;21153;-88
2020/12/18 11:02:57;;;;;;;43.73;12.68;;;;;;;4.61;78.37;100369.30;1707897;82;21170;-88
2020/12/18 11:05:24;;;;;;;37.23;13.22;;;;;;;4.66;78.77;100364.26;1723863;78;21316;-85
2020/12/18 11:07:52;;;;;;;46.70;14.58;;;;;;;4.69;79.01;100360.43;1713499;82;21305;-83
2020/12/18 11:10:21;;;;;;;45.20;14.50;;;;;;;4.66;78.62;100365.12;1711627;83;21247;-83
2020/12/18 11:12:49;;;;;;;44.73;14.80;;;;;;;4.73;78.71;100366.09;1718619;79;21276;-83
2020/12/18 11:15:16;;;;;;;47.95;14.40;;;;;;;4.78;78.35;100370.92;1710841;82;21164;-83
2020/12/18 11:17:44;;;;;;;41.33;13.30;;;;;;;4.81;78.80;100371.39;1708179;81;21271;-82
2020/12/18 11:20:12;;;;;;;44.30;15.48;;;;;;;4.83;78.20;100365.84;1678628;82;21282;-84
2020/12/18 11:22:39;;;;;;;46.23;15.78;;;;;;;4.87;79.18;100363.34;1731815;82;21303;-85
2020/12/18 11:25:06;;;;;;;37.55;13.78;;;;;;;4.85;78.24;100365.45;1722304;81;21309;-83
2020/12/18 11:27:34;;;;;;;43.25;15.05;;;;;;;4.87;78.54;100367.20;1733410;82;21466;-83
2020/12/18 11:30:03;;;;;;;42.00;13.43;;;;;;;4.84;78.19;100364.59;1734749;82;21296;-83
2020/12/18 11:32:30;;;;;;;39.60;14.33;;;;;;;4.85;77.56;100367.60;1725869;82;21142;-81
2020/12/18 11:34:58;;;;;;;37.98;14.23;;;;;;;4.88;77.56;100366.81;1743260;82;21290;-82
2020/12/18 11:37:25;;;;;;;44.13;15.10;;;;;;;4.87;77.71;100365.92;1734088;82;21325;-82
2020/12/18 11:39:52;;;;;;;44.67;15.75;;;;;;;4.88;77.76;100359.94;1734642;82;21302;-83
2020/12/18 11:42:21;;;;;;;33.35;12.33;;;;;;;4.84;77.79;100363.30;1728585;81;21257;-82
2020/12/18 11:44:49;;;;;;;37.13;14.07;;;;;;;4.82;77.34;100367.56;1733760;82;21264;-82
2020/12/18 11:47:17;;;;;;;30.62;11.95;;;;;;;4.81;77.59;100369.67;1725719;82;21230;-82